createdAt,value
2023-08-30T00:01:03.316Z,83.10
2023-08-30T00:03:30.178Z,83.30
2023-08-30T00:05:57.011Z,84.00
2023-08-30T00:08:24.034Z,83.20
2023-08-30T00:10:50.947Z,83.30
2023-08-30T00:13:17.759Z,83.30
2023-08-30T00:15:44.545Z,83.30
2023-08-30T00:18:11.714Z,83.10
2023-08-30T00:20:39.145Z,83.20
2023-08-30T00:23:06.147Z,83.10
2023-08-30T00:25:32.944Z,83.20
2023-08-30T00:27:59.749Z,83.10
2023-08-30T00:30:26.632Z,83.10
2023-08-30T00:32:53.434Z,83.00
2023-08-30T00:35:20.314Z,83.10
2023-08-30T00:37:47.144Z,83.10
2023-08-30T00:40:14.007Z,83.10
2023-08-30T00:42:42.174Z,83.20
2023-08-30T00:45:09.239Z,83.10
2023-08-30T00:47:36.254Z,83.20
2023-08-30T00:50:03.105Z,83.10
2023-08-30T00:52:29.948Z,83.30
2023-08-30T00:54:56.736Z,83.30
2023-08-30T00:57:23.575Z,83.30
2023-08-30T00:59:52.130Z,83.30
2023-08-30T01:02:18.896Z,83.20
2023-08-30T01:04:46.836Z,83.10
2023-08-30T01:07:13.630Z,83.20
2023-08-30T01:09:40.862Z,83.10
2023-08-30T01:12:29.021Z,83.10
2023-08-30T01:15:04.886Z,83.10
2023-08-30T01:17:31.778Z,83.10
2023-08-30T01:20:09.120Z,83.10
2023-08-30T01:23:13.564Z,83.10
2023-08-30T01:25:58.649Z,83.10
2023-08-30T01:28:27.931Z,83.10
2023-08-30T01:30:58.493Z,82.90
2023-08-30T01:33:28.541Z,83.20
2023-08-30T01:35:56.523Z,83.10
2023-08-30T01:38:23.614Z,83.10
2023-08-30T01:40:50.426Z,83.10
2023-08-30T01:43:17.204Z,83.20
2023-08-30T01:45:44.739Z,83.20
2023-08-30T01:48:16.492Z,83.10
2023-08-30T01:50:44.051Z,83.20
2023-08-30T01:53:12.821Z,83.30
2023-08-30T01:55:39.970Z,83.00
2023-08-30T01:58:07.295Z,83.00
2023-08-30T02:00:34.348Z,83.10
2023-08-30T02:03:01.265Z,83.20
2023-08-30T02:05:28.203Z,83.10
2023-08-30T02:08:16.107Z,83.10
2023-08-30T02:10:45.445Z,83.10
2023-08-30T02:13:12.480Z,83.10
2023-08-30T02:15:39.250Z,83.20
2023-08-30T02:18:06.982Z,83.20
2023-08-30T02:20:34.075Z,83.20
2023-08-30T02:23:08.787Z,83.20
2023-08-30T02:25:41.257Z,83.30
2023-08-30T02:28:08.350Z,83.30
2023-08-30T02:30:35.310Z,83.30
2023-08-30T02:33:02.139Z,83.30
2023-08-30T02:35:29.039Z,83.30
2023-08-30T02:37:55.762Z,84.00
2023-08-30T02:40:22.517Z,83.20
2023-08-30T02:42:49.283Z,83.20
2023-08-30T02:45:17.285Z,83.10
2023-08-30T02:47:46.007Z,83.20
2023-08-30T02:50:12.841Z,83.30
2023-08-30T02:52:39.699Z,83.20
2023-08-30T02:55:07.192Z,83.30
2023-08-30T02:57:34.000Z,83.20
2023-08-30T03:00:00.773Z,83.20
2023-08-30T03:02:27.656Z,83.20
2023-08-30T03:04:54.489Z,83.20
2023-08-30T03:07:21.263Z,83.30
2023-08-30T03:09:52.601Z,83.20
2023-08-30T03:12:19.409Z,83.10
2023-08-30T03:14:46.127Z,83.10
2023-08-30T03:17:12.925Z,83.10
2023-08-30T03:19:39.980Z,83.10
2023-08-30T03:22:06.782Z,83.00
2023-08-30T03:24:33.576Z,83.00
2023-08-30T03:27:01.016Z,83.80
2023-08-30T03:29:27.919Z,83.20
2023-08-30T03:31:54.692Z,83.00
2023-08-30T03:34:21.522Z,83.00
2023-08-30T03:36:55.174Z,83.00
2023-08-30T03:39:22.790Z,83.00
2023-08-30T03:41:49.566Z,83.10
2023-08-30T03:44:16.451Z,83.10
2023-08-30T03:46:43.366Z,83.10
2023-08-30T03:49:10.166Z,83.10
2023-08-30T03:51:37.119Z,83.20
2023-08-30T03:54:04.227Z,83.10
2023-08-30T03:56:30.953Z,83.20
2023-08-30T03:58:57.661Z,83.20
2023-08-30T04:01:24.498Z,83.20
2023-08-30T04:03:51.400Z,83.20
2023-08-30T04:06:18.278Z,83.10
2023-08-30T04:08:45.173Z,83.10
2023-08-30T04:11:11.931Z,83.10
2023-08-30T04:13:38.713Z,83.10
2023-08-30T04:16:05.514Z,83.10
2023-08-30T04:18:32.401Z,83.20
2023-08-30T04:20:59.678Z,83.20
2023-08-30T04:23:26.474Z,83.10
2023-08-30T04:25:53.688Z,83.00
2023-08-30T04:28:20.538Z,83.20
2023-08-30T04:30:47.365Z,83.10
2023-08-30T04:33:14.667Z,83.20
2023-08-30T04:35:42.091Z,83.20
2023-08-30T04:38:09.148Z,83.20
2023-08-30T04:40:36.220Z,83.20
2023-08-30T04:43:03.205Z,83.10
2023-08-30T04:45:30.886Z,83.10
2023-08-30T04:47:57.870Z,83.00
2023-08-30T04:50:24.782Z,83.10
2023-08-30T04:52:51.611Z,83.20
2023-08-30T04:55:18.592Z,83.20
2023-08-30T04:57:46.777Z,83.20
2023-08-30T05:00:14.418Z,83.30
2023-08-30T05:02:43.546Z,83.20
2023-08-30T05:05:10.538Z,83.20
2023-08-30T05:07:37.336Z,83.30
2023-08-30T05:10:04.445Z,83.30
2023-08-30T05:12:31.247Z,83.40
2023-08-30T05:14:58.110Z,83.50
2023-08-30T05:17:25.043Z,83.50
2023-08-30T05:19:51.964Z,83.50
2023-08-30T05:22:18.858Z,83.40
2023-08-30T05:24:45.927Z,83.40
2023-08-30T05:27:14.066Z,83.50
2023-08-30T05:29:40.952Z,83.60
2023-08-30T05:32:08.038Z,83.50
2023-08-30T05:34:35.356Z,83.50
2023-08-30T05:37:02.144Z,83.50
2023-08-30T05:39:29.102Z,83.50
2023-08-30T05:41:55.850Z,83.50
2023-08-30T05:44:22.731Z,83.50
2023-08-30T05:46:49.493Z,83.50
2023-08-30T05:49:16.550Z,83.50
2023-08-30T05:51:43.319Z,83.50
2023-08-30T05:54:10.099Z,83.70
2023-08-30T05:56:36.920Z,83.40
2023-08-30T05:59:03.731Z,83.50
2023-08-30T06:01:30.636Z,83.60
2023-08-30T06:03:57.592Z,83.80
2023-08-30T06:06:24.476Z,84.00
2023-08-30T06:08:51.316Z,84.00
2023-08-30T06:11:18.220Z,84.00
2023-08-30T06:13:45.592Z,83.90
2023-08-30T06:16:12.371Z,84.00
2023-08-30T06:18:39.338Z,84.10
2023-08-30T06:21:06.233Z,84.20
2023-08-30T06:23:34.423Z,84.50
2023-08-30T06:26:01.685Z,84.40
2023-08-30T06:28:28.493Z,84.50
2023-08-30T06:30:55.301Z,84.40
2023-08-30T06:33:22.126Z,84.50
2023-08-30T06:35:50.637Z,84.30
2023-08-30T06:38:17.829Z,84.30
2023-08-30T06:40:47.674Z,84.50
2023-08-30T06:43:14.584Z,84.50
2023-08-30T06:45:42.652Z,84.40
2023-08-30T06:48:10.021Z,84.40
2023-08-30T06:50:37.137Z,84.50
2023-08-30T06:53:04.393Z,84.60
2023-08-30T06:55:31.354Z,84.70
2023-08-30T06:57:58.187Z,84.50
2023-08-30T07:00:25.044Z,84.60
2023-08-30T07:02:51.871Z,84.50
2023-08-30T07:05:18.765Z,84.40
2023-08-30T07:07:45.586Z,84.30
2023-08-30T07:10:12.416Z,84.20
2023-08-30T07:12:39.252Z,84.40
2023-08-30T07:15:06.539Z,84.30
2023-08-30T07:17:46.751Z,84.30
2023-08-30T07:20:19.357Z,84.40
2023-08-30T07:22:46.294Z,84.50
2023-08-30T07:25:14.809Z,84.50
2023-08-30T07:27:41.796Z,84.20
2023-08-30T07:30:09.190Z,84.50
2023-08-30T07:32:37.516Z,84.30
2023-08-30T07:35:04.963Z,84.20
2023-08-30T07:37:31.954Z,84.50
2023-08-30T07:39:59.175Z,84.50
2023-08-30T07:42:26.070Z,85.30
2023-08-30T07:44:52.859Z,84.40
2023-08-30T07:47:19.698Z,84.50
2023-08-30T07:49:46.490Z,84.50
2023-08-30T07:52:14.232Z,84.70
2023-08-30T07:54:41.335Z,84.60
2023-08-30T07:57:08.580Z,84.60
2023-08-30T07:59:36.703Z,84.70
2023-08-30T08:02:05.974Z,84.80
2023-08-30T08:04:35.411Z,85.00
2023-08-30T08:07:02.734Z,84.90
2023-08-30T08:09:29.529Z,85.10
2023-08-30T08:11:57.523Z,85.00
2023-08-30T08:14:25.450Z,85.10
2023-08-30T08:16:52.395Z,85.10
2023-08-30T08:19:19.265Z,85.30
2023-08-30T08:21:46.039Z,85.10
2023-08-30T08:24:12.869Z,85.10
2023-08-30T08:26:39.725Z,85.10
2023-08-30T08:29:06.628Z,85.30
2023-08-30T08:31:33.483Z,85.50
2023-08-30T08:34:11.739Z,85.40
2023-08-30T08:36:39.403Z,85.50
2023-08-30T08:39:06.733Z,85.40
2023-08-30T08:41:40.101Z,85.50
2023-08-30T08:44:07.839Z,85.70
2023-08-30T08:46:35.395Z,85.90
2023-08-30T08:49:12.825Z,86.20
2023-08-30T08:51:39.636Z,85.70
2023-08-30T08:54:06.852Z,85.80
2023-08-30T08:56:35.104Z,86.00
2023-08-30T08:59:02.347Z,85.90
2023-08-30T09:01:35.369Z,85.80
2023-08-30T09:04:09.584Z,85.80
2023-08-30T09:06:36.996Z,85.70
2023-08-30T09:09:07.412Z,85.60
2023-08-30T09:14:04.046Z,85.80
2023-08-30T09:16:30.782Z,85.90
2023-08-30T09:21:34.971Z,86.30
2023-08-30T09:24:05.499Z,86.60
2023-08-30T09:26:33.031Z,86.70
2023-08-30T09:29:06.333Z,86.30
2023-08-30T09:31:37.348Z,86.40
2023-08-30T09:34:07.333Z,86.30
2023-08-30T09:36:37.734Z,86.40
2023-08-30T09:39:06.246Z,86.20
2023-08-30T09:41:34.093Z,86.20
2023-08-30T09:44:13.613Z,86.30
2023-08-30T09:46:51.575Z,86.40
2023-08-30T09:49:26.214Z,87.10
2023-08-30T09:51:54.336Z,86.10
2023-08-30T09:56:56.746Z,86.40
2023-08-30T09:59:24.433Z,86.60
2023-08-30T10:01:51.573Z,86.00
2023-08-30T10:04:18.793Z,85.80
2023-08-30T10:06:45.642Z,85.80
2023-08-30T10:09:12.457Z,85.90
2023-08-30T10:11:39.682Z,85.80
2023-08-30T10:14:09.788Z,85.40
2023-08-30T10:16:43.648Z,85.50
2023-08-30T10:19:15.850Z,84.50
2023-08-30T10:21:44.673Z,85.10
2023-08-30T10:24:26.620Z,85.40
2023-08-30T10:27:00.365Z,85.40
2023-08-30T10:29:27.417Z,85.50
2023-08-30T10:31:54.266Z,85.10
2023-08-30T10:34:22.886Z,84.90
2023-08-30T10:37:01.458Z,84.90
2023-08-30T10:39:38.846Z,84.50
2023-08-30T10:42:15.464Z,84.00
2023-08-30T10:45:14.225Z,84.00
2023-08-30T10:47:41.904Z,84.10
2023-08-30T10:50:10.608Z,84.00
2023-08-30T10:52:37.730Z,84.10
2023-08-30T10:55:09.261Z,83.40
2023-08-30T10:57:36.281Z,82.70
2023-08-30T11:00:10.977Z,82.60
2023-08-30T11:02:38.801Z,82.60
2023-08-30T11:05:09.780Z,82.40
2023-08-30T11:07:36.761Z,82.00
2023-08-30T11:10:06.128Z,81.60
2023-08-30T11:12:32.929Z,81.30
2023-08-30T11:14:59.732Z,81.00
2023-08-30T11:17:27.907Z,81.10
2023-08-30T11:20:11.451Z,80.80
2023-08-30T11:22:45.742Z,81.00
2023-08-30T11:25:13.433Z,80.60
2023-08-30T11:27:40.352Z,80.80
2023-08-30T11:30:11.213Z,80.60
2023-08-30T11:32:39.157Z,80.50
2023-08-30T11:35:06.572Z,80.30
2023-08-30T11:37:33.729Z,80.30
2023-08-30T11:40:00.769Z,79.70
2023-08-30T11:42:27.698Z,79.90
2023-08-30T11:44:55.164Z,78.70
2023-08-30T11:47:24.335Z,78.40
2023-08-30T11:49:54.463Z,78.80
2023-08-30T11:52:21.438Z,78.30
2023-08-30T11:54:51.532Z,78.30
2023-08-30T11:57:18.600Z,78.00
2023-08-30T11:59:45.486Z,77.90
2023-08-30T12:02:15.504Z,77.80
2023-08-30T12:04:43.118Z,77.50
2023-08-30T12:07:10.282Z,77.30
2023-08-30T12:09:37.726Z,77.30
2023-08-30T12:12:11.537Z,77.00
2023-08-30T12:14:38.543Z,76.80
2023-08-30T12:17:05.941Z,76.50
2023-08-30T12:19:33.428Z,76.70
2023-08-30T12:22:07.039Z,76.30
2023-08-30T12:24:46.576Z,76.20
2023-08-30T12:27:14.731Z,77.10
2023-08-30T12:29:41.591Z,76.10
2023-08-30T12:32:08.919Z,75.80
2023-08-30T12:34:36.555Z,76.00
2023-08-30T12:37:05.286Z,75.90
2023-08-30T12:39:32.709Z,75.60
2023-08-30T12:41:59.631Z,75.50
2023-08-30T12:44:26.544Z,75.30
2023-08-30T12:46:53.527Z,75.10
2023-08-30T12:49:20.346Z,75.20
2023-08-30T12:51:47.262Z,74.90
2023-08-30T12:54:14.116Z,74.90
2023-08-30T12:56:41.053Z,74.90
2023-08-30T12:59:07.926Z,74.80
2023-08-30T13:01:34.845Z,74.60
2023-08-30T13:04:01.747Z,74.80
2023-08-30T13:06:28.548Z,74.50
2023-08-30T13:08:55.343Z,74.40
2023-08-30T13:11:22.285Z,74.50
2023-08-30T13:13:49.147Z,74.50
2023-08-30T13:16:16.082Z,74.40
2023-08-30T13:18:42.941Z,74.50
2023-08-30T13:21:10.426Z,74.40
2023-08-30T13:23:37.376Z,74.40
2023-08-30T13:26:04.377Z,74.20
2023-08-30T13:28:31.251Z,73.80
2023-08-30T13:30:58.271Z,73.80
2023-08-30T13:33:25.267Z,73.80
2023-08-30T13:35:55.281Z,73.80
2023-08-30T13:38:24.045Z,73.80
2023-08-30T13:40:50.923Z,73.70
2023-08-30T13:43:18.567Z,73.70
2023-08-30T13:45:48.138Z,73.90
2023-08-30T13:48:15.134Z,73.60
2023-08-30T13:50:45.035Z,73.80
2023-08-30T13:53:12.135Z,73.80
2023-08-30T13:55:39.242Z,73.40
2023-08-30T13:58:06.138Z,73.50
2023-08-30T14:00:32.974Z,73.70
2023-08-30T14:02:59.850Z,73.40
2023-08-30T14:05:26.724Z,73.60
2023-08-30T14:07:53.647Z,73.70
2023-08-30T14:10:21.639Z,73.40
2023-08-30T14:12:48.453Z,73.30
2023-08-30T14:15:15.372Z,73.30
2023-08-30T14:17:43.087Z,73.40
2023-08-30T14:20:10.515Z,73.00
2023-08-30T14:22:37.989Z,72.80
2023-08-30T14:25:11.993Z,72.60
2023-08-30T14:27:40.313Z,73.00
2023-08-30T14:30:08.057Z,72.70
2023-08-30T14:32:34.898Z,72.90
2023-08-30T14:35:01.698Z,73.00
2023-08-30T14:37:28.487Z,73.20
2023-08-30T14:39:55.443Z,73.20
2023-08-30T14:42:22.498Z,73.10
2023-08-30T14:44:52.410Z,73.00
2023-08-30T14:47:19.417Z,73.00
2023-08-30T14:49:46.980Z,72.80
2023-08-30T14:52:17.151Z,72.90
2023-08-30T14:54:44.301Z,73.00
2023-08-30T14:57:11.194Z,72.80
2023-08-30T14:59:38.337Z,72.80
2023-08-30T15:02:05.153Z,72.80
2023-08-30T15:04:33.087Z,72.90
2023-08-30T15:06:59.898Z,72.70
2023-08-30T15:09:26.704Z,72.70
2023-08-30T15:11:53.453Z,72.60
2023-08-30T15:14:20.215Z,72.60
2023-08-30T15:16:47.105Z,72.80
2023-08-30T15:19:13.955Z,72.60
2023-08-30T15:24:08.526Z,72.60
2023-08-30T15:26:35.390Z,72.40
2023-08-30T15:29:02.653Z,72.70
2023-08-30T15:31:29.449Z,72.50
2023-08-30T15:33:56.237Z,72.40
2023-08-30T15:36:23.081Z,72.50
2023-08-30T15:38:51.049Z,72.40
2023-08-30T15:41:17.925Z,72.20
2023-08-30T15:43:44.825Z,72.30
2023-08-30T15:46:12.610Z,72.20
2023-08-30T15:48:40.045Z,71.90
2023-08-30T15:51:16.377Z,72.00
2023-08-30T15:53:47.896Z,72.00
2023-08-30T15:56:14.736Z,71.90
2023-08-30T15:58:41.529Z,71.80
2023-08-30T16:01:08.489Z,71.70
2023-08-30T16:03:37.402Z,71.90
2023-08-30T16:06:04.790Z,71.90
2023-08-30T16:08:31.671Z,71.80
2023-08-30T16:10:58.695Z,71.90
2023-08-30T16:13:25.984Z,72.10
2023-08-30T16:15:54.557Z,72.00
2023-08-30T16:18:21.400Z,72.10
2023-08-30T16:20:50.648Z,72.20
2023-08-30T16:23:17.546Z,72.30
2023-08-30T16:25:44.302Z,72.30
2023-08-30T16:28:11.046Z,72.40
2023-08-30T16:30:37.981Z,72.50
2023-08-30T16:33:05.292Z,72.60
2023-08-30T16:35:32.155Z,72.50
2023-08-30T16:37:59.372Z,72.70
2023-08-30T16:40:26.297Z,72.70
2023-08-30T16:42:53.122Z,72.90
2023-08-30T16:45:20.777Z,72.90
2023-08-30T16:48:05.983Z,73.10
2023-08-30T16:50:34.701Z,73.10
2023-08-30T16:53:01.754Z,73.10
2023-08-30T16:55:28.576Z,73.20
2023-08-30T16:57:55.549Z,73.20
2023-08-30T17:00:22.534Z,73.40
2023-08-30T17:02:52.853Z,73.50
2023-08-30T17:05:19.826Z,73.30
2023-08-30T17:07:47.194Z,73.50
2023-08-30T17:10:14.167Z,73.40
2023-08-30T17:12:42.007Z,73.50
2023-08-30T17:15:09.151Z,73.50
2023-08-30T17:17:35.953Z,73.50
2023-08-30T17:20:04.022Z,73.60
2023-08-30T17:22:30.901Z,73.40
2023-08-30T17:24:57.815Z,73.40
2023-08-30T17:27:24.676Z,73.60
2023-08-30T17:29:51.474Z,73.50
2023-08-30T17:32:18.341Z,73.60
2023-08-30T17:34:49.010Z,73.70
2023-08-30T17:37:15.990Z,73.80
2023-08-30T17:39:42.830Z,73.80
2023-08-30T17:42:09.692Z,74.00
2023-08-30T17:44:38.557Z,74.00
2023-08-30T17:47:08.263Z,73.80
2023-08-30T17:49:35.136Z,73.80
2023-08-30T17:52:02.010Z,73.90
2023-08-30T17:54:28.925Z,73.90
2023-08-30T17:56:55.764Z,73.90
2023-08-30T17:59:22.653Z,74.80
2023-08-30T18:01:49.512Z,74.00
2023-08-30T18:04:16.403Z,73.80
2023-08-30T18:06:43.237Z,73.70
2023-08-30T18:09:15.380Z,73.70
2023-08-30T18:11:42.971Z,73.60
2023-08-30T18:14:11.290Z,73.70
2023-08-30T18:16:38.079Z,73.70
2023-08-30T18:19:05.052Z,73.60
2023-08-30T18:21:35.515Z,73.60
2023-08-30T18:24:21.299Z,73.80
2023-08-30T18:26:49.073Z,73.80
2023-08-30T18:29:16.329Z,73.80
2023-08-30T18:31:43.837Z,73.80
2023-08-30T18:34:12.388Z,73.80
2023-08-30T18:36:39.598Z,73.90
2023-08-30T18:39:06.779Z,73.90
2023-08-30T18:41:33.774Z,73.90
2023-08-30T18:44:00.570Z,73.80
2023-08-30T18:46:28.139Z,73.80
2023-08-30T18:48:57.836Z,73.80
2023-08-30T18:51:25.776Z,73.70
2023-08-30T18:53:53.080Z,73.80
2023-08-30T18:56:20.320Z,73.90
2023-08-30T18:58:47.382Z,73.80
2023-08-30T19:01:17.447Z,73.80
2023-08-30T19:03:44.331Z,74.00
2023-08-30T19:06:12.604Z,73.90
2023-08-30T19:08:39.662Z,74.00
2023-08-30T19:11:07.128Z,73.90
2023-08-30T19:13:34.268Z,74.00
2023-08-30T19:16:01.383Z,74.00
2023-08-30T19:18:29.977Z,74.00
2023-08-30T19:21:00.115Z,74.10
2023-08-30T19:23:26.976Z,74.20
2023-08-30T19:25:54.202Z,74.20
2023-08-30T19:28:21.612Z,74.20
2023-08-30T19:30:48.528Z,74.00
2023-08-30T19:33:15.749Z,74.20
2023-08-30T19:35:43.093Z,74.20
2023-08-30T19:38:09.956Z,74.40
2023-08-30T19:40:36.819Z,74.30
2023-08-30T19:43:03.808Z,74.10
2023-08-30T19:45:30.678Z,74.30
2023-08-30T19:47:57.564Z,74.30
2023-08-30T19:50:24.439Z,74.50
2023-08-30T19:52:51.271Z,74.40
2023-08-30T19:55:18.163Z,75.30
2023-08-30T19:57:47.062Z,74.70
2023-08-30T20:00:14.943Z,74.50
2023-08-30T20:02:41.836Z,74.50
2023-08-30T20:05:09.992Z,74.50
2023-08-30T20:07:36.879Z,74.50
2023-08-30T20:10:04.601Z,74.50
2023-08-30T20:12:31.486Z,74.50
2023-08-30T20:14:58.347Z,74.60
2023-08-30T20:17:25.214Z,74.60
2023-08-30T20:19:53.534Z,74.70
2023-08-30T20:22:20.375Z,74.80
2023-08-30T20:24:47.158Z,74.70
2023-08-30T20:27:13.987Z,74.70
2023-08-30T20:29:40.784Z,74.80
2023-08-30T20:32:07.615Z,74.80
2023-08-30T20:34:37.473Z,74.80
2023-08-30T20:37:04.480Z,74.80
2023-08-30T20:39:31.293Z,74.80
2023-08-30T20:41:58.331Z,74.70
2023-08-30T20:44:25.114Z,74.80
2023-08-30T20:46:51.900Z,74.80
2023-08-30T20:49:18.789Z,74.90
2023-08-30T20:51:45.584Z,74.90
2023-08-30T20:54:12.350Z,75.70
2023-08-30T20:56:39.216Z,74.80
2023-08-30T20:59:06.150Z,75.00
2023-08-30T21:01:34.589Z,75.00
2023-08-30T21:04:01.781Z,75.00
2023-08-30T21:06:28.990Z,74.90
2023-08-30T21:08:57.503Z,74.80
2023-08-30T21:11:24.970Z,74.70
2023-08-30T21:13:51.987Z,74.80
2023-08-30T21:16:18.956Z,74.80
2023-08-30T21:18:45.850Z,74.90
2023-08-30T21:21:12.706Z,75.00
2023-08-30T21:23:39.495Z,75.20
2023-08-30T21:26:06.570Z,75.10
2023-08-30T21:28:33.718Z,75.20
2023-08-30T21:31:00.996Z,75.10
2023-08-30T21:33:28.081Z,75.10
2023-08-30T21:35:55.334Z,75.30
2023-08-30T21:38:22.378Z,75.40
2023-08-30T21:40:49.515Z,75.60
2023-08-30T21:43:16.433Z,75.40
2023-08-30T21:45:43.748Z,75.50
2023-08-30T21:48:11.297Z,75.50
2023-08-30T21:50:38.817Z,75.60
2023-08-30T21:53:05.853Z,75.70
2023-08-30T21:55:32.681Z,75.60
2023-08-30T21:58:00.642Z,75.70
2023-08-30T22:00:28.041Z,75.70
2023-08-30T22:02:54.941Z,75.50
2023-08-30T22:05:21.851Z,75.70
2023-08-30T22:07:48.646Z,75.70
2023-08-30T22:10:16.079Z,75.70
2023-08-30T22:12:46.889Z,75.50
2023-08-30T22:15:15.669Z,75.50
2023-08-30T22:17:43.773Z,75.50
2023-08-30T22:20:11.606Z,75.50
2023-08-30T22:22:40.113Z,75.50
2023-08-30T22:25:08.052Z,75.70
2023-08-30T22:27:35.391Z,75.60
2023-08-30T22:30:02.644Z,75.70
2023-08-30T22:32:31.185Z,75.70
2023-08-30T22:34:59.604Z,75.80
2023-08-30T22:37:26.774Z,75.70
2023-08-30T22:39:53.567Z,75.80
2023-08-30T22:42:20.398Z,75.70
2023-08-30T22:44:47.336Z,75.80
2023-08-30T22:47:15.661Z,75.70
2023-08-30T22:49:42.630Z,75.80
2023-08-30T22:52:09.716Z,76.00
2023-08-30T22:54:39.934Z,75.80
2023-08-30T22:57:06.888Z,75.60
2023-08-30T22:59:34.022Z,75.70
2023-08-30T23:02:00.878Z,75.80
2023-08-30T23:04:27.820Z,75.90
2023-08-30T23:06:55.149Z,75.90
2023-08-30T23:09:22.291Z,76.00
2023-08-30T23:11:50.343Z,75.90
2023-08-30T23:14:17.259Z,75.90
2023-08-30T23:16:44.343Z,76.00
2023-08-30T23:19:11.153Z,75.90
2023-08-30T23:21:38.002Z,76.00
2023-08-30T23:24:05.191Z,76.00
2023-08-30T23:26:32.039Z,76.00
2023-08-30T23:28:58.816Z,76.10
2023-08-30T23:31:25.790Z,75.90
2023-08-30T23:33:52.687Z,76.00
2023-08-30T23:36:23.067Z,76.00
2023-08-30T23:38:49.979Z,76.10
2023-08-30T23:41:16.771Z,75.90
2023-08-30T23:43:43.911Z,75.80
2023-08-30T23:46:10.681Z,75.80
2023-08-30T23:48:37.755Z,75.80
2023-08-30T23:51:04.852Z,76.80
2023-08-30T23:53:32.406Z,76.00
2023-08-30T23:55:59.168Z,76.10
2023-08-30T23:58:25.975Z,76.10
